Horse Branch, Kentucky
Current Conditions -  °F | °C
As of 9:56 PM on Tuesday 25 Nov 2014 (Local Time) from KOWB Reporting Station
Clear Clear  
Wind Chill: 26°   Ceiling: Unl
Heat Index: 32°   Visibility: 10mi
Dew Point: 27°   Wind: 6mph
Humidity: 82%   Direction: 10°N
Pressure: 30.21"   Gusts: NA
Location:  37.46°N, 86.68°W
Report Text: KOWB 260356Z 01005KT 10SM CLR 00/M03 A3021 RMK AO2 T00001027 SLP233
Loading
Personal Weather Stations






























Interactive Weather Map New forecast layout! Learn more

10-Day Weather Forecast

Advertisements
Track Severe Weather on mobile